Südanflug-Wetter

Südanflüge sind sowohl am Euroairport Basel-Mulhouse-Freiburg als auch am Flughafen Unique Zürich ein Thema für die Anwohner. In Basel hängen Südanflüge von den Windverhältnissen ab. Für den Euroairport Basel-Mulhouse-Freiburg bereitet MeteoNews deshalb aktuelle Winddaten auf, die direkt auf der Homepage des Flughafens eingebunden werden. Angaben zum Flughafen Zürich finden Sie hier.

In Zürich sind Südanflüge auf die Piste 34 möglich, wenn die horizontale Sichtweite mindestens 750 m beträgt und die Wolkenuntergrenze im Anflugsektor nicht tiefer als 300 Fuss (knapp 100 m) liegt (diese Werte gelten seit dem 1. November 2004).

Prognose für Südanflüge

Am Sonntag sind Südanflüge möglich.
(Prognose ohne Gewähr. Die Vorhersage wird mehrmals täglich aktualisiert. Verantwortlicher Meteorologe: Klaus Marquardt, 13.06.2021 05:10)

Analyse der letzten METAR-Messungen

Unser Tool wertet die letzten 20 offiziellen Wettermeldungen (METAR) des Flughafens Zürich aus und entscheidet aufgrund der beiden Werte für Sichtweite und Ceiling (Hauptwolkenuntergrenze), ob Südanflüge nach obiger Definition möglich wären. Allerdings repräsentiert der Wert für die Wolkenuntergrenze in der METAR-Meldung nicht die Bewölkung im Anflugsektor sondern generell um den Flughafen. Da über die Bewölkung im Anflugsektor kurzfristig aufgrund von Beobachtungen des Towers und von Piloten entschieden wird, kann die Angabe unseres Tools in gewissen Fällen von den realen Entscheiden der Flugsicherung abweichen.

Südanflüge Datum Uhrzeit Sichtweite Ceiling Vollständige METAR-Meldung
möglich 2021-06-13 06:50:00 > 10 km 1520 m LSZH 130450Z 31002KT 9999 FEW040 BKN050 16/14 Q1025 NOSIG
möglich 2021-06-13 06:20:00 > 10 km 1520 m LSZH 130420Z 32004KT 9999 FEW040 BKN050 16/14 Q1024 NOSIG
möglich 2021-06-13 05:50:00 > 10 km 1520 m LSZH 130350Z 32004KT 9999 FEW045 BKN050 16/14 Q1024 NOSIG
möglich 2021-06-13 05:20:00 > 10 km 1400 m LSZH 130320Z AUTO 34002KT 9999 BKN046 16/14 Q1024 NOSIG
möglich 2021-06-13 04:50:00 > 10 km 1520 m LSZH 130250Z AUTO VRB01KT 9999 FEW045 BKN050 16/14 Q1024 NOSIG
möglich 2021-06-13 04:20:00 > 10 km LSZH 130220Z AUTO VRB01KT 9999 FEW043 SCT048 17/14 Q1024 NOSIG
möglich 2021-06-13 03:50:00 > 10 km 1520 m LSZH 130150Z AUTO VRB02KT 9999 FEW045 BKN050 17/14 Q1024 NOSIG
möglich 2021-06-13 03:20:00 > 10 km LSZH 130120Z AUTO VRB01KT 9999 FEW043 SCT048 16/14 Q1024 NOSIG
möglich 2021-06-13 02:50:00 > 10 km LSZH 130050Z AUTO VRB02KT 9999 FEW043 16/14 Q1025 NOSIG
möglich 2021-06-13 02:20:00 > 10 km LSZH 130020Z AUTO 32003KT 9999 SCT044 16/14 Q1025 NOSIG
möglich 2021-06-13 01:50:00 > 10 km LSZH 122350Z AUTO 32004KT 9999 FEW065 16/14 Q1025 NOSIG
möglich 2021-06-13 01:20:00 > 10 km LSZH 122320Z AUTO 35005KT 9999 SCT047 SCT075 17/14 Q1025 NOSIG
möglich 2021-06-13 00:50:00 > 10 km LSZH 122250Z AUTO 01005KT 9999 FEW048 SCT065 20/13 Q1025 NOSIG
möglich 2021-06-13 00:20:00 > 10 km 1980 m LSZH 122220Z AUTO 01005KT 9999 SCT049 SCT055 BKN065 18/13 Q1025 NOSIG
möglich 2021-06-12 23:50:00 > 10 km LSZH 122150Z AUTO 35005KT 9999 SCT050 18/14 Q1024 NOSIG
möglich 2021-06-12 23:20:00 > 10 km LSZH 122120Z 34003KT 9999 SCT050 18/14 Q1024 NOSIG
möglich 2021-06-12 22:50:00 > 10 km LSZH 122050Z 31003KT 9999 SCT050 19/14 Q1024 NOSIG
möglich 2021-06-12 22:20:00 > 10 km LSZH 122020Z 30003KT 9999 FEW050 20/14 Q1023 NOSIG
möglich 2021-06-12 21:50:00 > 10 km LSZH 121950Z 32005KT 9999 FEW050 20/14 Q1023 NOSIG
möglich 2021-06-12 21:20:00 > 10 km LSZH 121920Z 33005KT CAVOK 20/15 Q1022 NOSIG